Time;durP1;ratioP1;P1;durP2;ratioP2;P2;SDS_P1;SDS_P2;PMS_P1;PMS_P2;Temp;Humidity;BMP_temperature;BMP_pressure;BME280_temperature;BME280_humidity;BME280_pressure;Samples;Min_cycle;Max_cycle;Signal;HPM_P1;HPM_P2
2022/06/03 00:01:05;;;;;;;6.40;3.38;;;;;;;;;;5057901;28;20091;-59
2022/06/03 00:03:35;;;;;;;4.90;2.53;;;;;;;;;;5057824;28;20047;-59
2022/06/03 00:06:07;;;;;;;6.65;2.33;;;;;;;;;;5059429;28;20440;-60
2022/06/03 00:08:49;;;;;;;8.55;2.70;;;;;;;;;;5057630;28;20074;-60
2022/06/03 00:11:15;;;;;;;5.90;2.78;;;;;;;;;;5058501;28;20177;-60
2022/06/03 00:13:47;;;;;;;3.78;2.70;;;;;;;;;;5059836;28;20044;-60
2022/06/03 00:16:13;;;;;;;3.80;2.42;;;;;;;;;;5059755;28;20067;-60
2022/06/03 00:18:48;;;;;;;4.93;2.92;;;;;;;;;;5059405;28;20528;-60
2022/06/03 00:21:20;;;;;;;4.85;2.60;;;;;;;;;;5058631;28;20184;-59
2022/06/03 00:23:55;;;;;;;6.28;2.85;;;;;;;;;;5057664;28;20119;-58
2022/06/03 00:26:32;;;;;;;5.03;2.53;;;;;;;;;;5059276;28;20040;-60
2022/06/03 00:29:01;;;;;;;6.60;3.22;;;;;;;;;;5059384;28;20052;-59
2022/06/03 00:31:30;;;;;;;7.28;2.53;;;;;;;;;;5060720;28;20040;-60
2022/06/03 00:34:19;;;;;;;8.57;2.67;;;;;;;;;;5062155;28;20059;-60
2022/06/03 00:36:45;;;;;;;;;;;;;;;;;;5064467;28;20398;-59
2022/06/03 00:39:18;;;;;;;4.43;2.22;;;;;;;;;;5062239;28;21184;-59
2022/06/03 00:41:52;;;;;;;6.72;2.60;;;;;;;;;;5064243;28;20131;-59
2022/06/03 00:44:27;;;;;;;7.57;2.97;;;;;;;;;;5062503;28;20059;-59
2022/06/03 00:46:53;;;;;;;3.45;2.75;;;;;;;;;;5062224;28;20141;-60
2022/06/03 00:49:33;;;;;;;4.88;2.45;;;;;;;;;;5063434;28;20040;-60
2022/06/03 00:52:03;;;;;;;18.20;2.60;;;;;;;;;;5061785;28;20139;-59
2022/06/03 00:54:33;;;;;;;15.23;2.67;;;;;;;;;;5062209;28;20054;-59
2022/06/03 00:57:09;;;;;;;7.95;2.92;;;;;;;;;;5063605;28;20044;-60
2022/06/03 00:59:44;;;;;;;7.75;3.38;;;;;;;;;;5062417;28;20059;-60
2022/06/03 01:02:43;;;;;;;7.68;3.35;;;;;;;;;;5059966;28;20079;-59
2022/06/03 01:05:09;;;;;;;5.80;3.58;;;;;;;;;;5062976;28;20036;-59
2022/06/03 01:07:49;;;;;;;10.75;3.70;;;;;;;;;;5062274;28;20037;-60
2022/06/03 01:10:24;;;;;;;9.73;3.78;;;;;;;;;;5058536;28;20552;-59
2022/06/03 01:13:12;;;;;;;6.15;3.63;;;;;;;;;;5062020;28;20063;-60
2022/06/03 01:15:44;;;;;;;5.45;2.95;;;;;;;;;;5061194;28;20048;-59
2022/06/03 01:18:13;;;;;;;4.68;3.13;;;;;;;;;;5061964;28;20044;-59
2022/06/03 01:20:45;;;;;;;8.25;3.10;;;;;;;;;;5057474;28;20045;-60
2022/06/03 01:23:18;;;;;;;7.55;3.13;;;;;;;;;;5062081;28;20671;-58
2022/06/03 01:26:10;;;;;;;6.05;3.10;;;;;;;;;;5062176;28;20578;-59
2022/06/03 01:28:40;;;;;;;5.07;3.03;;;;;;;;;;5061237;28;20053;-59
2022/06/03 01:31:09;;;;;;;6.95;3.08;;;;;;;;;;5062497;28;20242;-59
2022/06/03 01:33:43;;;;;;;5.60;3.20;;;;;;;;;;5062536;28;20083;-60
2022/06/03 01:36:18;;;;;;;6.32;3.30;;;;;;;;;;5062135;28;20109;-60
2022/06/03 01:38:58;;;;;;;6.00;3.20;;;;;;;;;;5058116;28;20089;-59
2022/06/03 01:41:43;;;;;;;5.18;3.00;;;;;;;;;;5060724;28;20045;-59
2022/06/03 01:44:09;;;;;;;7.30;3.15;;;;;;;;;;5061664;28;20675;-60
2022/06/03 01:46:39;;;;;;;6.03;2.90;;;;;;;;;;5058233;28;20089;-60
2022/06/03 01:49:15;;;;;;;6.78;3.10;;;;;;;;;;5061275;28;20494;-60
2022/06/03 01:51:50;;;;;;;6.45;3.03;;;;;;;;;;5060341;28;20044;-59
2022/06/03 01:54:30;;;;;;;8.73;3.38;;;;;;;;;;5059913;28;20482;-59
2022/06/03 01:57:06;;;;;;;6.20;3.38;;;;;;;;;;5061790;28;20075;-59
2022/06/03 01:59:45;;;;;;;5.90;2.83;;;;;;;;;;5061434;28;20040;-59
2022/06/03 02:02:18;;;;;;;5.22;3.20;;;;;;;;;;5060085;28;20135;-59
2022/06/03 02:04:58;;;;;;;11.52;3.90;;;;;;;;;;5062292;28;20039;-59
2022/06/03 02:07:45;;;;;;;7.47;3.85;;;;;;;;;;5061400;28;20040;-60
2022/06/03 02:10:41;;;;;;;6.13;3.30;;;;;;;;;;5061015;28;20525;-59
2022/06/03 02:13:17;;;;;;;8.05;3.22;;;;;;;;;;5060760;28;20498;-59
2022/06/03 02:15:54;;;;;;;7.65;3.38;;;;;;;;;;5062297;28;20127;-60
2022/06/03 02:18:30;;;;;;;6.22;3.40;;;;;;;;;;5062040;28;20074;-60
2022/06/03 02:21:11;;;;;;;8.02;3.50;;;;;;;;;;5060635;28;20059;-59
2022/06/03 02:23:52;;;;;;;12.80;3.80;;;;;;;;;;5060222;28;20036;-60
2022/06/03 02:26:37;;;;;;;5.70;3.55;;;;;;;;;;5061691;28;20124;-60
2022/06/03 02:31:52;;;;;;;9.25;3.88;;;;;;;;;;5061262;28;20178;-59
2022/06/03 02:34:29;;;;;;;8.18;3.28;;;;;;;;;;5058348;28;20811;-60
2022/06/03 02:37:04;;;;;;;9.75;3.65;;;;;;;;;;5058968;28;20045;-59
2022/06/03 02:40:06;;;;;;;7.45;3.80;;;;;;;;;;5060463;28;20087;-59
2022/06/03 02:42:33;;;;;;;7.80;3.35;;;;;;;;;;5060120;28;20140;-59
2022/06/03 02:45:01;;;;;;;5.95;3.10;;;;;;;;;;5060655;28;20041;-59
2022/06/03 02:47:27;;;;;;;;;;;;;;;;;;5061652;28;20127;-59
2022/06/03 02:50:13;;;;;;;6.28;3.00;;;;;;;;;;5060548;28;20384;-59
2022/06/03 02:52:46;;;;;;;5.95;3.25;;;;;;;;;;5058985;28;20067;-59
2022/06/03 02:55:31;;;;;;;8.13;3.50;;;;;;;;;;5058534;28;20115;-60
2022/06/03 02:58:04;;;;;;;8.45;3.35;;;;;;;;;;5059776;28;20043;-59
2022/06/03 03:00:36;;;;;;;8.48;3.55;;;;;;;;;;5059576;28;20048;-60
2022/06/03 03:03:19;;;;;;;7.18;3.72;;;;;;;;;;5060932;28;20063;-60
2022/06/03 03:06:16;;;;;;;5.72;3.70;;;;;;;;;;5060171;28;20055;-60
2022/06/03 03:08:55;;;;;;;9.20;4.68;;;;;;;;;;5058396;28;20040;-59
2022/06/03 03:11:29;;;;;;;10.75;3.80;;;;;;;;;;5059725;28;20050;-59
2022/06/03 03:14:14;;;;;;;5.63;3.65;;;;;;;;;;5060246;28;20048;-59
2022/06/03 03:16:49;;;;;;;5.22;3.45;;;;;;;;;;5060093;28;20048;-59
2022/06/03 03:19:28;;;;;;;6.45;3.53;;;;;;;;;;5061140;28;20044;-59
2022/06/03 03:21:54;;;;;;;;;;;;;;;;;;5057837;28;20541;-60
2022/06/03 03:24:35;;;;;;;9.75;3.70;;;;;;;;;;5059809;28;20057;-60
2022/06/03 03:27:13;;;;;;;7.95;4.20;;;;;;;;;;5060498;28;20036;-59
2022/06/03 03:29:44;;;;;;;8.57;4.43;;;;;;;;;;5059678;28;20045;-59
2022/06/03 03:32:29;;;;;;;8.80;4.22;;;;;;;;;;5059806;28;20044;-59
2022/06/03 03:34:56;;;;;;;5.85;3.60;;;;;;;;;;5059611;28;20036;-60
2022/06/03 03:37:28;;;;;;;8.90;4.28;;;;;;;;;;5057316;28;20044;-60
2022/06/03 03:40:28;;;;;;;9.88;4.10;;;;;;;;;;5059553;28;20063;-59
2022/06/03 03:43:12;;;;;;;6.78;4.13;;;;;;;;;;5060412;28;20041;-59
2022/06/03 03:45:50;;;;;;;10.27;4.32;;;;;;;;;;5058673;28;20063;-59
2022/06/03 03:48:28;;;;;;;11.40;4.55;;;;;;;;;;5059690;28;20162;-58
2022/06/03 03:51:03;;;;;;;9.02;3.97;;;;;;;;;;5057838;28;20048;-59
2022/06/03 03:53:35;;;;;;;7.90;4.15;;;;;;;;;;5054807;28;20468;-59
2022/06/03 03:56:04;;;;;;;9.40;4.50;;;;;;;;;;5059409;28;20041;-59
2022/06/03 03:58:50;;;;;;;7.75;4.13;;;;;;;;;;5060440;28;20044;-59
2022/06/03 04:01:26;;;;;;;7.53;4.15;;;;;;;;;;5058890;28;20063;-57
2022/06/03 04:04:03;;;;;;;7.97;4.30;;;;;;;;;;5060269;28;20131;-60
2022/06/03 04:06:33;;;;;;;9.35;3.72;;;;;;;;;;5058753;28;20174;-60
2022/06/03 04:09:06;;;;;;;8.05;4.10;;;;;;;;;;5059008;28;20061;-59
2022/06/03 04:11:41;;;;;;;7.30;3.75;;;;;;;;;;5059739;28;20052;-60
2022/06/03 04:14:14;;;;;;;9.05;4.32;;;;;;;;;;5059727;28;20044;-60
2022/06/03 04:16:59;;;;;;;5.70;3.97;;;;;;;;;;5060340;28;20056;-60
2022/06/03 04:19:26;;;;;;;8.18;4.00;;;;;;;;;;5058524;28;20485;-60
2022/06/03 04:22:13;;;;;;;6.47;3.72;;;;;;;;;;5059486;28;20127;-60
2022/06/03 04:24:45;;;;;;;6.72;3.70;;;;;;;;;;5059212;28;20762;-60
2022/06/03 04:27:12;;;;;;;10.13;4.07;;;;;;;;;;5059414;28;20052;-60
2022/06/03 04:29:57;;;;;;;7.13;3.85;;;;;;;;;;5059622;28;20045;-60
2022/06/03 04:32:38;;;;;;;7.50;3.75;;;;;;;;;;5059437;28;20040;-60
2022/06/03 04:35:26;;;;;;;9.18;3.90;;;;;;;;;;5058633;28;20044;-59
2022/06/03 04:38:05;;;;;;;10.02;3.72;;;;;;;;;;5057551;28;20037;-60
2022/06/03 04:40:50;;;;;;;6.60;3.50;;;;;;;;;;5059305;28;20418;-60
2022/06/03 04:43:22;;;;;;;6.22;3.50;;;;;;;;;;5059042;28;20040;-60
2022/06/03 04:45:48;;;;;;;6.68;3.45;;;;;;;;;;5057723;28;20798;-60
2022/06/03 04:48:14;;;;;;;8.40;4.00;;;;;;;;;;5058825;28;20036;-60
2022/06/03 04:50:47;;;;;;;9.38;4.10;;;;;;;;;;5059465;28;20045;-61
2022/06/03 04:53:17;;;;;;;6.18;4.05;;;;;;;;;;5054344;28;20040;-61
2022/06/03 04:55:43;;;;;;;7.22;3.30;;;;;;;;;;5059976;28;20041;-60
2022/06/03 04:58:12;;;;;;;11.00;3.83;;;;;;;;;;5058855;28;20048;-60
2022/06/03 05:00:48;;;;;;;8.23;3.80;;;;;;;;;;5058077;28;20049;-59
2022/06/03 05:03:33;;;;;;;10.07;4.07;;;;;;;;;;5060442;28;20099;-60
2022/06/03 05:06:18;;;;;;;8.55;3.80;;;;;;;;;;5058796;28;20094;-59
2022/06/03 05:09:03;;;;;;;6.40;3.60;;;;;;;;;;5059287;28;20055;-60
2022/06/03 05:11:39;;;;;;;7.72;3.50;;;;;;;;;;5059321;28;20418;-59
2022/06/03 05:14:22;;;;;;;6.90;3.95;;;;;;;;;;5058270;28;20549;-59
2022/06/03 05:16:52;;;;;;;8.38;3.80;;;;;;;;;;5058044;28;20045;-60
2022/06/03 05:19:30;;;;;;;9.40;4.03;;;;;;;;;;5059821;28;20087;-60
2022/06/03 05:22:07;;;;;;;8.88;4.00;;;;;;;;;;5061995;28;20040;-59
2022/06/03 05:24:52;;;;;;;11.70;4.20;;;;;;;;;;5061138;28;20053;-59
2022/06/03 05:27:37;;;;;;;6.70;3.38;;;;;;;;;;5055540;28;20036;-59
2022/06/03 05:30:22;;;;;;;8.80;3.28;;;;;;;;;;5058351;28;20119;-60
2022/06/03 05:32:48;;;;;;;6.32;3.33;;;;;;;;;;5052456;28;20487;-60
2022/06/03 05:35:14;;;;;;;8.57;3.17;;;;;;;;;;5054332;28;20037;-59
2022/06/03 05:37:44;;;;;;;5.63;3.10;;;;;;;;;;5058802;28;20067;-60
2022/06/03 05:40:17;;;;;;;8.35;3.30;;;;;;;;;;5056376;28;20079;-60
2022/06/03 05:42:54;;;;;;;6.55;2.95;;;;;;;;;;5061028;28;20482;-61
2022/06/03 05:45:27;;;;;;;7.43;3.17;;;;;;;;;;5061321;28;20036;-61
2022/06/03 05:47:57;;;;;;;9.05;3.35;;;;;;;;;;5061195;28;20040;-61
2022/06/03 05:50:37;;;;;;;5.70;2.95;;;;;;;;;;5061946;28;20051;-61
2022/06/03 05:53:19;;;;;;;5.57;2.95;;;;;;;;;;5057876;28;20537;-61
2022/06/03 05:55:54;;;;;;;6.53;3.03;;;;;;;;;;5058117;28;20091;-61
2022/06/03 05:58:38;;;;;;;9.40;2.70;;;;;;;;;;5054670;28;20036;-60
2022/06/03 06:01:22;;;;;;;5.07;2.67;;;;;;;;;;5061995;28;20533;-60
2022/06/03 06:03:53;;;;;;;7.07;2.85;;;;;;;;;;5062244;28;20044;-61
2022/06/03 06:06:31;;;;;;;5.70;2.50;;;;;;;;;;5060675;28;20036;-62
2022/06/03 06:08:58;;;;;;;7.47;2.67;;;;;;;;;;5051712;28;20135;-61
2022/06/03 06:11:35;;;;;;;8.15;2.95;;;;;;;;;;5058545;28;20406;-62
2022/06/03 06:14:09;;;;;;;5.25;2.70;;;;;;;;;;5058521;28;20060;-61
2022/06/03 06:16:40;;;;;;;6.55;2.90;;;;;;;;;;5056405;28;20518;-61
2022/06/03 06:19:06;;;;;;;6.75;2.40;;;;;;;;;;5058846;28;20039;-61
2022/06/03 06:21:33;;;;;;;3.88;2.30;;;;;;;;;;5059946;28;20052;-61
2022/06/03 06:24:06;;;;;;;5.82;2.50;;;;;;;;;;5058431;28;20048;-61
2022/06/03 06:26:38;;;;;;;6.63;2.80;;;;;;;;;;5057877;28;20044;-61
2022/06/03 06:29:37;;;;;;;5.53;2.65;;;;;;;;;;5056382;28;20141;-61
2022/06/03 06:32:35;;;;;;;6.20;2.47;;;;;;;;;;5057728;28;20049;-62
2022/06/03 06:35:28;;;;;;;5.00;2.03;;;;;;;;;;5058364;28;20052;-62
2022/06/03 06:38:04;;;;;;;5.05;2.00;;;;;;;;;;5057490;28;20460;-60
2022/06/03 06:40:39;;;;;;;5.28;1.77;;;;;;;;;;5057707;28;20048;-62
2022/06/03 06:43:05;;;;;;;4.35;1.75;;;;;;;;;;5058189;28;20052;-59
2022/06/03 06:45:37;;;;;;;4.40;1.80;;;;;;;;;;5058213;28;20500;-59
2022/06/03 06:48:15;;;;;;;4.18;1.92;;;;;;;;;;5057896;28;20071;-59
2022/06/03 06:50:49;;;;;;;3.85;1.90;;;;;;;;;;5058187;28;20044;-59
2022/06/03 06:53:22;;;;;;;6.28;1.70;;;;;;;;;;5058307;28;20051;-59
2022/06/03 06:56:04;;;;;;;2.90;1.73;;;;;;;;;;5057491;28;20532;-59
2022/06/03 06:58:42;;;;;;;5.47;1.92;;;;;;;;;;5058108;28;20131;-59
2022/06/03 07:01:09;;;;;;;5.05;1.80;;;;;;;;;;5057943;28;20044;-59
2022/06/03 07:03:39;;;;;;;6.50;1.75;;;;;;;;;;5058244;28;20123;-59
2022/06/03 07:06:07;;;;;;;6.40;1.75;;;;;;;;;;5055974;28;20440;-59
2022/06/03 07:08:38;;;;;;;3.42;1.80;;;;;;;;;;5055496;28;20052;-59
2022/06/03 07:11:10;;;;;;;4.82;2.08;;;;;;;;;;5058082;28;20070;-58
2022/06/03 07:13:37;;;;;;;3.83;1.73;;;;;;;;;;5058735;28;20082;-59
2022/06/03 07:16:09;;;;;;;5.15;2.13;;;;;;;;;;5057067;28;20043;-59
2022/06/03 07:21:39;;;;;;;4.18;1.80;;;;;;;;;;5056796;28;20040;-60
2022/06/03 07:24:09;;;;;;;4.35;1.70;;;;;;;;;;5055664;28;20040;-61
2022/06/03 07:26:38;;;;;;;7.32;1.70;;;;;;;;;;5056925;28;20549;-60
2022/06/03 07:29:11;;;;;;;7.03;2.08;;;;;;;;;;5057172;28;20036;-60
2022/06/03 07:31:40;;;;;;;3.75;2.17;;;;;;;;;;5057216;28;20090;-60
2022/06/03 07:34:15;;;;;;;3.83;1.92;;;;;;;;;;5057543;28;20036;-60
2022/06/03 07:36:53;;;;;;;5.18;1.85;;;;;;;;;;5056506;28;20064;-60
2022/06/03 07:39:19;;;;;;;;;;;;;;;;;;5056395;28;20037;-60
2022/06/03 07:41:53;;;;;;;7.68;1.90;;;;;;;;;;5057039;28;19920;-60
2022/06/03 07:44:23;;;;;;;6.28;2.30;;;;;;;;;;5056221;28;20103;-60
2022/06/03 07:46:52;;;;;;;9.35;2.28;;;;;;;;;;5053148;28;20044;-60
2022/06/03 07:49:21;;;;;;;4.28;2.35;;;;;;;;;;5057499;28;20041;-60
2022/06/03 07:51:49;;;;;;;4.30;2.13;;;;;;;;;;5058170;28;20052;-61
2022/06/03 07:54:16;;;;;;;5.35;2.42;;;;;;;;;;5059055;28;20039;-60
2022/06/03 07:56:42;;;;;;;6.43;2.50;;;;;;;;;;5060652;28;20090;-60
2022/06/03 07:59:13;;;;;;;9.20;2.72;;;;;;;;;;5060062;28;20036;-60
2022/06/03 08:01:42;;;;;;;4.72;2.70;;;;;;;;;;5059788;28;20049;-60
2022/06/03 08:04:13;;;;;;;6.97;3.00;;;;;;;;;;5060267;28;20042;-60
2022/06/03 08:12:11;;;;;;;10.80;3.20;;;;;;;;;;5060272;28;20072;-61
2022/06/03 08:14:37;;;;;;;10.50;2.90;;;;;;;;;;5057488;28;20133;-60
2022/06/03 08:17:04;;;;;;;3.85;2.50;;;;;;;;;;5058943;28;20133;-60
2022/06/03 08:19:30;;;;;;;3.65;2.83;;;;;;;;;;5058581;28;20078;-60
2022/06/03 08:21:58;;;;;;;7.70;2.88;;;;;;;;;;5060432;28;20036;-60
2022/06/03 08:24:26;;;;;;;7.25;2.92;;;;;;;;;;5059235;28;20047;-60
2022/06/03 08:26:56;;;;;;;5.53;2.67;;;;;;;;;;5060120;28;20214;-60
2022/06/03 08:29:27;;;;;;;5.30;2.72;;;;;;;;;;5059210;28;20051;-59
2022/06/03 08:31:54;;;;;;;8.45;2.63;;;;;;;;;;5058470;28;20154;-60
2022/06/03 08:34:25;;;;;;;5.50;2.53;;;;;;;;;;5059800;28;20123;-60
2022/06/03 08:36:51;;;;;;;6.32;2.97;;;;;;;;;;5060524;28;20036;-60
2022/06/03 08:39:19;;;;;;;6.78;3.25;;;;;;;;;;5059054;28;20053;-61
2022/06/03 08:41:56;;;;;;;5.25;3.05;;;;;;;;;;5060190;28;20055;-61
2022/06/03 08:44:41;;;;;;;6.35;2.97;;;;;;;;;;5058441;28;20059;-60
2022/06/03 08:47:19;;;;;;;9.60;3.80;;;;;;;;;;5059091;28;20490;-60
2022/06/03 08:49:54;;;;;;;16.13;3.35;;;;;;;;;;5059541;28;20036;-61
2022/06/03 08:52:24;;;;;;;7.85;3.03;;;;;;;;;;5056668;28;20041;-60
2022/06/03 08:54:52;;;;;;;5.75;3.28;;;;;;;;;;5063034;28;20115;-61
2022/06/03 08:57:25;;;;;;;13.55;3.50;;;;;;;;;;5062415;28;20041;-60
2022/06/03 08:59:56;;;;;;;10.07;3.80;;;;;;;;;;5063227;28;20044;-60
2022/06/03 09:02:30;;;;;;;6.93;3.50;;;;;;;;;;5063407;28;20048;-60
2022/06/03 09:05:01;;;;;;;4.30;2.70;;;;;;;;;;5063344;28;20041;-60
2022/06/03 09:07:27;;;;;;;8.60;3.33;;;;;;;;;;5062539;28;20036;-60
2022/06/03 09:09:57;;;;;;;5.25;3.13;;;;;;;;;;5062857;28;20498;-60
2022/06/03 09:12:29;;;;;;;7.68;3.20;;;;;;;;;;5063487;28;20086;-60
2022/06/03 09:14:57;;;;;;;4.82;2.50;;;;;;;;;;5063212;28;20043;-60
2022/06/03 09:17:37;;;;;;;5.63;2.88;;;;;;;;;;5063211;28;20032;-60
2022/06/03 09:20:08;;;;;;;10.25;3.35;;;;;;;;;;5063115;28;20040;-60
2022/06/03 09:22:35;;;;;;;6.03;2.83;;;;;;;;;;5059861;28;20766;-61
2022/06/03 09:25:02;;;;;;;6.03;2.90;;;;;;;;;;5060424;28;20043;-60
2022/06/03 09:27:30;;;;;;;6.40;2.45;;;;;;;;;;5062900;28;20060;-60
2022/06/03 09:30:00;;;;;;;4.78;2.70;;;;;;;;;;5062422;28;20044;-60
2022/06/03 09:32:28;;;;;;;4.95;2.90;;;;;;;;;;5062727;28;20048;-60
2022/06/03 09:34:57;;;;;;;5.20;2.45;;;;;;;;;;5063041;28;20050;-61
2022/06/03 09:37:28;;;;;;;6.47;2.83;;;;;;;;;;5060680;28;20044;-60
2022/06/03 09:39:55;;;;;;;4.80;2.45;;;;;;;;;;5061169;28;20084;-60
2022/06/03 09:42:22;;;;;;;5.40;2.30;;;;;;;;;;5062747;28;20049;-60
2022/06/03 09:44:50;;;;;;;5.30;2.40;;;;;;;;;;5062216;28;20867;-60
2022/06/03 09:47:18;;;;;;;6.53;3.63;;;;;;;;;;5063394;28;20097;-60
2022/06/03 09:49:46;;;;;;;5.57;2.95;;;;;;;;;;5058454;28;20068;-60
2022/06/03 09:52:15;;;;;;;6.68;2.78;;;;;;;;;;5062361;28;20044;-60
2022/06/03 09:54:42;;;;;;;5.53;2.80;;;;;;;;;;5061905;28;20041;-60
2022/06/03 09:57:15;;;;;;;7.60;3.17;;;;;;;;;;5061871;28;20066;-60
2022/06/03 09:59:50;;;;;;;3.20;1.90;;;;;;;;;;5061509;28;20143;-60
2022/06/03 10:02:16;;;;;;;4.13;2.90;;;;;;;;;;5061894;28;20490;-60
2022/06/03 10:04:42;;;;;;;5.70;3.42;;;;;;;;;;5060849;28;20127;-61
2022/06/03 10:07:09;;;;;;;6.50;3.03;;;;;;;;;;5060266;28;20394;-60
2022/06/03 10:17:59;;;;;;;3.92;2.55;;;;;;;;;;5061663;28;20044;-60
2022/06/03 10:20:25;;;;;;;9.77;2.53;;;;;;;;;;5061198;28;20410;-60
2022/06/03 10:22:52;;;;;;;3.75;1.95;;;;;;;;;;5055702;28;20434;-61
2022/06/03 10:25:18;;;;;;;5.15;2.53;;;;;;;;;;5059324;28;20600;-60
2022/06/03 10:27:45;;;;;;;4.53;2.22;;;;;;;;;;5062152;28;21627;-60
2022/06/03 10:30:13;;;;;;;3.97;2.43;;;;;;;;;;5060868;28;20054;-60
2022/06/03 10:32:39;;;;;;;4.20;2.05;;;;;;;;;;5061454;28;20059;-60
2022/06/03 10:35:13;;;;;;;8.20;2.50;;;;;;;;;;5061632;28;20036;-60
2022/06/03 10:37:47;;;;;;;3.95;2.42;;;;;;;;;;5059759;28;20429;-60
2022/06/03 10:40:14;;;;;;;4.20;2.58;;;;;;;;;;5060504;28;20081;-60
2022/06/03 10:42:45;;;;;;;4.20;2.28;;;;;;;;;;5058669;28;20102;-61
2022/06/03 10:45:11;;;;;;;4.00;2.35;;;;;;;;;;5060687;28;20195;-60
2022/06/03 10:47:39;;;;;;;4.82;1.85;;;;;;;;;;5060421;28;20078;-60
2022/06/03 10:50:11;;;;;;;4.20;2.63;;;;;;;;;;5060799;28;20043;-61
2022/06/03 11:01:12;;;;;;;4.65;1.65;;;;;;;;;;5060041;28;20066;-60
2022/06/03 11:03:41;;;;;;;3.53;2.17;;;;;;;;;;5059894;28;20594;-61
2022/06/03 11:06:11;;;;;;;3.97;2.10;;;;;;;;;;5060663;28;20146;-60
2022/06/03 11:08:48;;;;;;;4.70;2.00;;;;;;;;;;5059630;28;20131;-60
2022/06/03 11:11:14;;;;;;;3.40;1.67;;;;;;;;;;5060181;28;20055;-60
2022/06/03 11:13:40;;;;;;;5.72;1.77;;;;;;;;;;5060630;28;20047;-61
2022/06/03 11:16:15;;;;;;;2.67;1.52;;;;;;;;;;5054958;28;20045;-61
2022/06/03 11:18:41;;;;;;;5.57;2.10;;;;;;;;;;5056942;28;20045;-61
2022/06/03 11:21:20;;;;;;;4.68;2.22;;;;;;;;;;5058141;28;20044;-61
2022/06/03 11:23:46;;;;;;;2.78;1.90;;;;;;;;;;5058021;28;20811;-61
2022/06/03 11:26:12;;;;;;;4.20;1.65;;;;;;;;;;5058930;28;20127;-62
2022/06/03 11:28:40;;;;;;;4.10;1.63;;;;;;;;;;5057618;28;20060;-61
2022/06/03 11:31:19;;;;;;;4.35;1.95;;;;;;;;;;5056629;28;20041;-61
2022/06/03 11:33:48;;;;;;;4.05;1.25;;;;;;;;;;5056460;28;20088;-60
2022/06/03 11:36:18;;;;;;;2.25;1.52;;;;;;;;;;5060570;28;20140;-61
2022/06/03 11:38:49;;;;;;;3.53;1.80;;;;;;;;;;5060624;28;20060;-61
2022/06/03 11:41:18;;;;;;;5.15;1.88;;;;;;;;;;5060836;28;20041;-61
2022/06/03 11:43:48;;;;;;;5.45;1.60;;;;;;;;;;5060732;28;20110;-61
2022/06/03 11:46:18;;;;;;;3.28;1.70;;;;;;;;;;5060512;28;20060;-61
2022/06/03 11:48:45;;;;;;;5.00;1.83;;;;;;;;;;5059205;28;20702;-61
2022/06/03 11:51:13;;;;;;;3.80;2.55;;;;;;;;;;5059847;28;20089;-61
2022/06/03 11:53:41;;;;;;;4.93;2.22;;;;;;;;;;5059696;28;20040;-61
2022/06/03 11:56:09;;;;;;;3.60;1.98;;;;;;;;;;5059923;28;20052;-61
2022/06/03 11:58:54;;;;;;;5.93;1.80;;;;;;;;;;5059336;28;20218;-61
2022/06/03 12:01:25;;;;;;;2.72;1.85;;;;;;;;;;5059686;28;20291;-61
2022/06/03 12:03:55;;;;;;;3.30;2.28;;;;;;;;;;5059977;28;20086;-61
2022/06/03 12:06:26;;;;;;;2.00;1.45;;;;;;;;;;5055276;28;20078;-61
2022/06/03 12:08:57;;;;;;;5.43;2.03;;;;;;;;;;5060381;28;20198;-61
2022/06/03 12:14:13;;;;;;;3.85;1.60;;;;;;;;;;5059899;28;20144;-61
2022/06/03 12:16:54;;;;;;;3.20;1.88;;;;;;;;;;5059217;28;20412;-61
2022/06/03 12:19:37;;;;;;;3.17;1.77;;;;;;;;;;5059876;28;20102;-62
2022/06/03 12:22:21;;;;;;;4.20;2.30;;;;;;;;;;5058118;28;20041;-61
2022/06/03 12:24:48;;;;;;;3.17;1.50;;;;;;;;;;5058158;28;20529;-61
2022/06/03 12:27:17;;;;;;;2.08;1.58;;;;;;;;;;5060786;28;20490;-61
2022/06/03 12:29:48;;;;;;;6.80;2.20;;;;;;;;;;5063985;28;20033;-61
2022/06/03 12:32:17;;;;;;;4.50;1.85;;;;;;;;;;5064322;28;20118;-61
2022/06/03 12:34:43;;;;;;;5.05;2.47;;;;;;;;;;5063846;28;20507;-61
2022/06/03 12:37:25;;;;;;;7.20;2.00;;;;;;;;;;5063052;28;20058;-61
2022/06/03 12:40:00;;;;;;;4.32;1.80;;;;;;;;;;5063232;28;20135;-61
2022/06/03 12:42:27;;;;;;;3.90;1.52;;;;;;;;;;5063244;28;20040;-61
2022/06/03 12:44:57;;;;;;;2.75;1.80;;;;;;;;;;5063841;28;20029;-61
2022/06/03 12:47:23;;;;;;;5.32;1.55;;;;;;;;;;5060984;28;20040;-62
2022/06/03 12:49:51;;;;;;;14.93;2.47;;;;;;;;;;5062926;28;20036;-61
2022/06/03 12:52:35;;;;;;;10.88;2.50;;;;;;;;;;5063023;28;20068;-60
2022/06/03 12:55:05;;;;;;;2.15;1.80;;;;;;;;;;5059605;28;20060;-61
2022/06/03 12:57:39;;;;;;;3.13;1.80;;;;;;;;;;5062671;28;20053;-61
2022/06/03 13:00:07;;;;;;;2.95;1.58;;;;;;;;;;5062297;28;20048;-61
2022/06/03 13:02:48;;;;;;;3.42;1.55;;;;;;;;;;5062825;28;20032;-61
2022/06/03 13:05:40;;;;;;;2.88;1.63;;;;;;;;;;5063500;28;20070;-61
2022/06/03 13:08:08;;;;;;;4.15;1.50;;;;;;;;;;5061762;28;20328;-61
2022/06/03 13:10:57;;;;;;;3.60;1.55;;;;;;;;;;5061169;28;20060;-61
2022/06/03 13:13:38;;;;;;;3.50;1.15;;;;;;;;;;5060103;28;20044;-61
2022/06/03 13:16:27;;;;;;;4.40;1.77;;;;;;;;;;5057436;28;20463;-61
2022/06/03 13:18:54;;;;;;;1.52;1.13;;;;;;;;;;5061450;28;20090;-60
2022/06/03 13:21:25;;;;;;;4.82;1.63;;;;;;;;;;5052248;28;20052;-61
2022/06/03 13:23:51;;;;;;;2.45;1.20;;;;;;;;;;5056505;28;20503;-60
2022/06/03 13:26:21;;;;;;;1.83;1.25;;;;;;;;;;5058156;28;20044;-61
2022/06/03 13:28:48;;;;;;;2.17;1.77;;;;;;;;;;5059069;28;20150;-61
2022/06/03 13:31:20;;;;;;;2.35;1.10;;;;;;;;;;5057469;28;20048;-59
2022/06/03 13:34:01;;;;;;;5.72;1.42;;;;;;;;;;5057153;28;20044;-61
2022/06/03 13:36:37;;;;;;;5.80;1.65;;;;;;;;;;5058562;28;20099;-61
2022/06/03 13:39:05;;;;;;;3.25;1.13;;;;;;;;;;5059204;28;20113;-61
2022/06/03 13:44:37;;;;;;;2.47;1.10;;;;;;;;;;5051766;28;20494;-62
2022/06/03 13:47:07;;;;;;;2.20;1.20;;;;;;;;;;5056038;28;20094;-62
2022/06/03 13:49:36;;;;;;;3.15;1.70;;;;;;;;;;5054795;28;20037;-62
2022/06/03 13:52:04;;;;;;;2.60;1.15;;;;;;;;;;5054984;28;20123;-62
2022/06/03 13:54:33;;;;;;;4.00;1.20;;;;;;;;;;5053135;28;20044;-61
2022/06/03 13:57:09;;;;;;;5.60;1.35;;;;;;;;;;5051806;28;20100;-61
2022/06/03 13:59:39;;;;;;;8.00;1.50;;;;;;;;;;5055455;28;20075;-61
2022/06/03 14:02:12;;;;;;;7.75;1.58;;;;;;;;;;5057163;28;20071;-62
2022/06/03 14:04:46;;;;;;;4.53;1.63;;;;;;;;;;5058053;28;20105;-61
2022/06/03 14:07:12;;;;;;;2.00;1.20;;;;;;;;;;5059606;28;20074;-61
2022/06/03 14:09:47;;;;;;;2.33;0.93;;;;;;;;;;5061117;28;20410;-61
2022/06/03 14:12:22;;;;;;;1.85;1.17;;;;;;;;;;5060819;28;20415;-61
2022/06/03 14:15:01;;;;;;;8.57;1.10;;;;;;;;;;5061002;28;20075;-61
2022/06/03 14:17:32;;;;;;;2.85;0.90;;;;;;;;;;5061484;28;20056;-61
2022/06/03 14:20:04;;;;;;;2.70;0.88;;;;;;;;;;5060007;28;20055;-61
2022/06/03 14:22:44;;;;;;;2.38;1.23;;;;;;;;;;5060553;28;20048;-61
2022/06/03 14:25:18;;;;;;;3.78;1.38;;;;;;;;;;5060849;28;20074;-61
2022/06/03 14:27:50;;;;;;;1.63;0.80;;;;;;;;;;5060244;28;20040;-61
2022/06/03 14:30:26;;;;;;;4.32;1.20;;;;;;;;;;5060106;28;20041;-61
2022/06/03 14:32:54;;;;;;;1.90;1.10;;;;;;;;;;5058935;28;20040;-61
2022/06/03 14:35:20;;;;;;;;;;;;;;;;;;5059904;28;20148;-62
2022/06/03 14:37:49;;;;;;;2.85;1.00;;;;;;;;;;5059540;28;19967;-61
2022/06/03 14:40:20;;;;;;;1.40;0.90;;;;;;;;;;5061199;28;20595;-61
2022/06/03 14:42:49;;;;;;;4.93;1.20;;;;;;;;;;5058914;28;20513;-61
2022/06/03 14:45:15;;;;;;;3.47;0.80;;;;;;;;;;5060834;28;20486;-61
2022/06/03 14:47:47;;;;;;;2.55;1.00;;;;;;;;;;5060817;28;20049;-61
2022/06/03 14:50:19;;;;;;;2.60;1.25;;;;;;;;;;5060279;28;20083;-61
2022/06/03 14:52:47;;;;;;;2.20;0.90;;;;;;;;;;5058932;28;20032;-61
2022/06/03 14:55:15;;;;;;;2.78;1.20;;;;;;;;;;5061562;28;20045;-61
2022/06/03 14:57:47;;;;;;;3.72;0.88;;;;;;;;;;5059348;28;20056;-61
2022/06/03 15:00:19;;;;;;;2.40;0.90;;;;;;;;;;5061287;28;20090;-61
2022/06/03 15:02:46;;;;;;;2.47;0.90;;;;;;;;;;5059408;28;20106;-61
2022/06/03 15:05:12;;;;;;;3.90;1.30;;;;;;;;;;5058495;28;20056;-60
2022/06/03 15:07:40;;;;;;;3.30;0.95;;;;;;;;;;5058377;28;20045;-61
2022/06/03 15:10:08;;;;;;;4.90;0.90;;;;;;;;;;5057901;28;20049;-61
2022/06/03 15:12:36;;;;;;;1.40;0.63;;;;;;;;;;5058529;28;20406;-61
2022/06/03 15:15:03;;;;;;;1.50;0.80;;;;;;;;;;5059782;28;20090;-61
2022/06/03 15:17:31;;;;;;;2.05;1.00;;;;;;;;;;5058969;28;20070;-61
2022/06/03 15:19:58;;;;;;;33.58;2.15;;;;;;;;;;5057621;28;20584;-60
2022/06/03 15:22:26;;;;;;;626.03;36.08;;;;;;;;;;5055049;28;21742;-61
2022/06/03 15:24:54;;;;;;;25.88;2.15;;;;;;;;;;5052287;28;20113;-61
2022/06/03 15:27:22;;;;;;;38.40;2.38;;;;;;;;;;5055691;28;20123;-60
2022/06/03 15:29:51;;;;;;;5.15;0.90;;;;;;;;;;5052758;28;20041;-61
2022/06/03 15:32:17;;;;;;;40.92;2.85;;;;;;;;;;5052274;28;20049;-62
2022/06/03 15:34:45;;;;;;;2.22;0.90;;;;;;;;;;5048639;28;20053;-63
2022/06/03 15:37:11;;;;;;;3.15;0.73;;;;;;;;;;5050722;28;20040;-61
2022/06/03 15:39:38;;;;;;;32.13;2.75;;;;;;;;;;5049658;28;20083;-61
2022/06/03 15:42:10;;;;;;;3.43;0.63;;;;;;;;;;5049336;28;20070;-60
2022/06/03 15:44:36;;;;;;;3.55;0.90;;;;;;;;;;5050601;28;20050;-61
2022/06/03 15:47:05;;;;;;;2.17;0.60;;;;;;;;;;5046094;28;20052;-60
2022/06/03 15:49:32;;;;;;;2.85;0.70;;;;;;;;;;5048755;28;20048;-61
2022/06/03 15:51:59;;;;;;;2.83;0.52;;;;;;;;;;5052401;28;20041;-60